sensor_id;sensor_type;location;lat;lon;timestamp;P1;durP1;ratioP1;P2;durP2;ratioP2
54368;SDS011;40266;52.434;17.056;2022-12-29T00:01:01;12.10;;;6.00;;
54368;SDS011;40266;52.434;17.056;2022-12-29T00:03:47;13.40;;;6.80;;
54368;SDS011;40266;52.434;17.056;2022-12-29T00:06:31;13.60;;;6.50;;
54368;SDS011;40266;52.434;17.056;2022-12-29T00:09:15;12.60;;;5.50;;
54368;SDS011;40266;52.434;17.056;2022-12-29T00:12:05;17.50;;;6.60;;
54368;SDS011;40266;52.434;17.056;2022-12-29T00:14:48;12.90;;;4.90;;
54368;SDS011;40266;52.434;17.056;2022-12-29T00:17:50;13.00;;;6.00;;
54368;SDS011;40266;52.434;17.056;2022-12-29T00:20:35;11.80;;;5.70;;
54368;SDS011;40266;52.434;17.056;2022-12-29T00:23:37;15.60;;;5.60;;
54368;SDS011;40266;52.434;17.056;2022-12-29T00:26:39;10.50;;;5.40;;
54368;SDS011;40266;52.434;17.056;2022-12-29T00:29:41;14.80;;;6.30;;
54368;SDS011;40266;52.434;17.056;2022-12-29T00:32:44;15.60;;;4.80;;
54368;SDS011;40266;52.434;17.056;2022-12-29T00:35:50;10.20;;;5.00;;
54368;SDS011;40266;52.434;17.056;2022-12-29T00:38:37;12.00;;;5.00;;
54368;SDS011;40266;52.434;17.056;2022-12-29T00:41:44;11.60;;;5.50;;
54368;SDS011;40266;52.434;17.056;2022-12-29T00:44:46;10.70;;;5.50;;
54368;SDS011;40266;52.434;17.056;2022-12-29T00:47:29;11.00;;;5.20;;
54368;SDS011;40266;52.434;17.056;2022-12-29T00:50:12;14.90;;;5.00;;
54368;SDS011;40266;52.434;17.056;2022-12-29T00:52:55;13.60;;;5.40;;
54368;SDS011;40266;52.434;17.056;2022-12-29T00:55:38;10.40;;;4.90;;
54368;SDS011;40266;52.434;17.056;2022-12-29T00:58:21;11.40;;;5.50;;
54368;SDS011;40266;52.434;17.056;2022-12-29T01:01:06;11.20;;;5.20;;
54368;SDS011;40266;52.434;17.056;2022-12-29T01:03:50;12.20;;;4.90;;
54368;SDS011;40266;52.434;17.056;2022-12-29T01:06:35;12.60;;;5.30;;
54368;SDS011;40266;52.434;17.056;2022-12-29T01:09:19;14.50;;;6.10;;
54368;SDS011;40266;52.434;17.056;2022-12-29T01:12:22;13.20;;;6.10;;
54368;SDS011;40266;52.434;17.056;2022-12-29T01:15:25;9.10;;;4.90;;
54368;SDS011;40266;52.434;17.056;2022-12-29T01:18:08;13.30;;;5.40;;
54368;SDS011;40266;52.434;17.056;2022-12-29T01:20:58;9.60;;;5.10;;
54368;SDS011;40266;52.434;17.056;2022-12-29T01:23:42;10.70;;;4.40;;
54368;SDS011;40266;52.434;17.056;2022-12-29T01:26:25;9.50;;;4.60;;
54368;SDS011;40266;52.434;17.056;2022-12-29T01:29:08;9.30;;;5.00;;
54368;SDS011;40266;52.434;17.056;2022-12-29T01:31:52;9.20;;;4.90;;
54368;SDS011;40266;52.434;17.056;2022-12-29T01:34:35;11.60;;;4.80;;
54368;SDS011;40266;52.434;17.056;2022-12-29T01:37:18;10.40;;;4.50;;
54368;SDS011;40266;52.434;17.056;2022-12-29T01:40:01;9.70;;;4.20;;
54368;SDS011;40266;52.434;17.056;2022-12-29T01:42:47;8.50;;;4.00;;
54368;SDS011;40266;52.434;17.056;2022-12-29T01:45:30;7.70;;;3.90;;
54368;SDS011;40266;52.434;17.056;2022-12-29T01:48:13;9.90;;;4.40;;
54368;SDS011;40266;52.434;17.056;2022-12-29T01:50:57;10.50;;;4.90;;
54368;SDS011;40266;52.434;17.056;2022-12-29T01:53:40;11.90;;;5.10;;
54368;SDS011;40266;52.434;17.056;2022-12-29T01:56:25;9.90;;;4.70;;
54368;SDS011;40266;52.434;17.056;2022-12-29T01:59:10;9.80;;;4.80;;
54368;SDS011;40266;52.434;17.056;2022-12-29T02:01:57;10.20;;;4.10;;
54368;SDS011;40266;52.434;17.056;2022-12-29T02:04:42;10.60;;;4.50;;
54368;SDS011;40266;52.434;17.056;2022-12-29T02:07:32;11.30;;;4.70;;
54368;SDS011;40266;52.434;17.056;2022-12-29T02:10:15;13.10;;;4.80;;
54368;SDS011;40266;52.434;17.056;2022-12-29T02:13:02;12.50;;;5.10;;
54368;SDS011;40266;52.434;17.056;2022-12-29T02:37:03;9.90;;;4.00;;
54368;SDS011;40266;52.434;17.056;2022-12-29T02:40:25;11.20;;;4.30;;
54368;SDS011;40266;52.434;17.056;2022-12-29T02:43:24;11.90;;;4.40;;
54368;SDS011;40266;52.434;17.056;2022-12-29T02:46:20;12.00;;;4.80;;
54368;SDS011;40266;52.434;17.056;2022-12-29T02:54:57;10.10;;;4.50;;
54368;SDS011;40266;52.434;17.056;2022-12-29T02:57:41;9.60;;;4.30;;
54368;SDS011;40266;52.434;17.056;2022-12-29T03:00:24;10.70;;;4.40;;
54368;SDS011;40266;52.434;17.056;2022-12-29T03:05:59;8.30;;;4.20;;
54368;SDS011;40266;52.434;17.056;2022-12-29T03:09:11;10.80;;;4.30;;
54368;SDS011;40266;52.434;17.056;2022-12-29T03:15:10;8.70;;;4.00;;
54368;SDS011;40266;52.434;17.056;2022-12-29T03:18:22;9.80;;;4.50;;
54368;SDS011;40266;52.434;17.056;2022-12-29T03:21:34;10.10;;;4.50;;
54368;SDS011;40266;52.434;17.056;2022-12-29T03:24:47;6.40;;;3.90;;
54368;SDS011;40266;52.434;17.056;2022-12-29T03:27:36;8.00;;;4.00;;
54368;SDS011;40266;52.434;17.056;2022-12-29T03:30:23;7.40;;;3.50;;
54368;SDS011;40266;52.434;17.056;2022-12-29T03:33:09;7.60;;;3.90;;
54368;SDS011;40266;52.434;17.056;2022-12-29T03:35:57;10.10;;;4.50;;
54368;SDS011;40266;52.434;17.056;2022-12-29T03:38:53;9.80;;;4.10;;
54368;SDS011;40266;52.434;17.056;2022-12-29T03:42:04;7.80;;;4.00;;
54368;SDS011;40266;52.434;17.056;2022-12-29T03:44:56;8.30;;;4.60;;
54368;SDS011;40266;52.434;17.056;2022-12-29T03:47:39;7.70;;;4.00;;
54368;SDS011;40266;52.434;17.056;2022-12-29T03:50:22;10.30;;;4.60;;
54368;SDS011;40266;52.434;17.056;2022-12-29T03:53:05;12.10;;;4.80;;
54368;SDS011;40266;52.434;17.056;2022-12-29T03:55:48;7.20;;;4.00;;
54368;SDS011;40266;52.434;17.056;2022-12-29T03:58:32;9.50;;;4.30;;
54368;SDS011;40266;52.434;17.056;2022-12-29T04:01:24;7.80;;;3.90;;
54368;SDS011;40266;52.434;17.056;2022-12-29T04:04:08;4.90;;;3.50;;
54368;SDS011;40266;52.434;17.056;2022-12-29T04:06:51;7.50;;;4.20;;
54368;SDS011;40266;52.434;17.056;2022-12-29T04:09:34;9.40;;;4.20;;
54368;SDS011;40266;52.434;17.056;2022-12-29T04:12:17;8.70;;;4.60;;
54368;SDS011;40266;52.434;17.056;2022-12-29T04:15:00;8.20;;;3.80;;
54368;SDS011;40266;52.434;17.056;2022-12-29T04:17:43;6.60;;;3.80;;
54368;SDS011;40266;52.434;17.056;2022-12-29T04:20:27;7.50;;;4.00;;
54368;SDS011;40266;52.434;17.056;2022-12-29T04:23:30;8.30;;;3.80;;
54368;SDS011;40266;52.434;17.056;2022-12-29T04:26:15;7.10;;;4.00;;
54368;SDS011;40266;52.434;17.056;2022-12-29T04:29:08;6.10;;;3.80;;
54368;SDS011;40266;52.434;17.056;2022-12-29T04:32:14;7.50;;;3.60;;
54368;SDS011;40266;52.434;17.056;2022-12-29T04:35:01;12.60;;;4.40;;
54368;SDS011;40266;52.434;17.056;2022-12-29T04:37:44;9.40;;;4.00;;
54368;SDS011;40266;52.434;17.056;2022-12-29T04:40:27;10.10;;;3.80;;
54368;SDS011;40266;52.434;17.056;2022-12-29T04:43:10;7.80;;;3.90;;
54368;SDS011;40266;52.434;17.056;2022-12-29T04:46:14;9.80;;;3.80;;
54368;SDS011;40266;52.434;17.056;2022-12-29T04:49:14;6.80;;;3.70;;
54368;SDS011;40266;52.434;17.056;2022-12-29T04:52:08;8.70;;;4.40;;
54368;SDS011;40266;52.434;17.056;2022-12-29T04:54:52;6.10;;;3.20;;
54368;SDS011;40266;52.434;17.056;2022-12-29T04:57:36;11.60;;;3.80;;
54368;SDS011;40266;52.434;17.056;2022-12-29T05:00:19;6.20;;;3.60;;
54368;SDS011;40266;52.434;17.056;2022-12-29T05:03:02;8.60;;;3.70;;
54368;SDS011;40266;52.434;17.056;2022-12-29T05:05:46;12.30;;;3.70;;
54368;SDS011;40266;52.434;17.056;2022-12-29T05:08:29;9.60;;;3.50;;
54368;SDS011;40266;52.434;17.056;2022-12-29T05:11:14;7.10;;;3.40;;
54368;SDS011;40266;52.434;17.056;2022-12-29T05:13:58;8.50;;;3.20;;
54368;SDS011;40266;52.434;17.056;2022-12-29T05:16:41;10.00;;;3.90;;
54368;SDS011;40266;52.434;17.056;2022-12-29T05:19:24;9.90;;;4.00;;
54368;SDS011;40266;52.434;17.056;2022-12-29T05:22:08;8.80;;;3.90;;
54368;SDS011;40266;52.434;17.056;2022-12-29T05:24:52;6.60;;;3.40;;
54368;SDS011;40266;52.434;17.056;2022-12-29T05:27:36;6.20;;;3.40;;
54368;SDS011;40266;52.434;17.056;2022-12-29T05:30:39;7.40;;;3.60;;
54368;SDS011;40266;52.434;17.056;2022-12-29T05:33:23;7.30;;;3.30;;
54368;SDS011;40266;52.434;17.056;2022-12-29T05:36:07;8.60;;;3.00;;
54368;SDS011;40266;52.434;17.056;2022-12-29T05:38:54;9.20;;;3.20;;
54368;SDS011;40266;52.434;17.056;2022-12-29T05:41:38;7.40;;;3.20;;
54368;SDS011;40266;52.434;17.056;2022-12-29T05:44:52;8.40;;;4.00;;
54368;SDS011;40266;52.434;17.056;2022-12-29T05:47:48;5.80;;;3.30;;
54368;SDS011;40266;52.434;17.056;2022-12-29T05:51:01;8.90;;;3.50;;
54368;SDS011;40266;52.434;17.056;2022-12-29T05:53:55;6.70;;;3.00;;
54368;SDS011;40266;52.434;17.056;2022-12-29T05:56:39;6.80;;;3.30;;
54368;SDS011;40266;52.434;17.056;2022-12-29T05:59:23;5.50;;;3.60;;
54368;SDS011;40266;52.434;17.056;2022-12-29T06:02:09;7.40;;;4.20;;
54368;SDS011;40266;52.434;17.056;2022-12-29T06:04:53;6.90;;;3.40;;
54368;SDS011;40266;52.434;17.056;2022-12-29T06:07:38;11.80;;;3.50;;
54368;SDS011;40266;52.434;17.056;2022-12-29T06:10:21;6.80;;;3.70;;
54368;SDS011;40266;52.434;17.056;2022-12-29T06:13:17;5.80;;;2.80;;
54368;SDS011;40266;52.434;17.056;2022-12-29T06:16:03;8.80;;;3.60;;
54368;SDS011;40266;52.434;17.056;2022-12-29T06:18:47;4.00;;;2.70;;
54368;SDS011;40266;52.434;17.056;2022-12-29T06:21:31;7.20;;;3.30;;
54368;SDS011;40266;52.434;17.056;2022-12-29T06:24:15;7.70;;;3.30;;
54368;SDS011;40266;52.434;17.056;2022-12-29T06:26:58;5.30;;;2.90;;
54368;SDS011;40266;52.434;17.056;2022-12-29T06:29:42;9.30;;;3.50;;
54368;SDS011;40266;52.434;17.056;2022-12-29T06:32:25;6.90;;;3.50;;
54368;SDS011;40266;52.434;17.056;2022-12-29T06:35:11;8.50;;;3.90;;
54368;SDS011;40266;52.434;17.056;2022-12-29T06:38:01;8.40;;;3.30;;
54368;SDS011;40266;52.434;17.056;2022-12-29T06:40:44;7.40;;;3.30;;
54368;SDS011;40266;52.434;17.056;2022-12-29T06:43:46;7.10;;;3.50;;
54368;SDS011;40266;52.434;17.056;2022-12-29T06:46:50;5.90;;;3.10;;
54368;SDS011;40266;52.434;17.056;2022-12-29T06:49:33;6.30;;;3.30;;
54368;SDS011;40266;52.434;17.056;2022-12-29T06:52:16;8.00;;;3.70;;
54368;SDS011;40266;52.434;17.056;2022-12-29T06:54:59;7.00;;;3.10;;
54368;SDS011;40266;52.434;17.056;2022-12-29T06:57:42;8.00;;;3.00;;
54368;SDS011;40266;52.434;17.056;2022-12-29T07:00:25;7.90;;;3.30;;
54368;SDS011;40266;52.434;17.056;2022-12-29T07:03:08;10.40;;;3.60;;
54368;SDS011;40266;52.434;17.056;2022-12-29T07:05:53;8.40;;;3.00;;
54368;SDS011;40266;52.434;17.056;2022-12-29T07:08:36;4.20;;;2.80;;
54368;SDS011;40266;52.434;17.056;2022-12-29T07:11:21;5.80;;;2.70;;
54368;SDS011;40266;52.434;17.056;2022-12-29T07:14:04;9.50;;;4.10;;
54368;SDS011;40266;52.434;17.056;2022-12-29T07:16:47;5.30;;;2.90;;
54368;SDS011;40266;52.434;17.056;2022-12-29T07:19:30;5.50;;;2.40;;
54368;SDS011;40266;52.434;17.056;2022-12-29T07:22:13;8.50;;;3.70;;
54368;SDS011;40266;52.434;17.056;2022-12-29T07:24:55;6.30;;;3.10;;
54368;SDS011;40266;52.434;17.056;2022-12-29T07:27:43;6.30;;;3.40;;
54368;SDS011;40266;52.434;17.056;2022-12-29T07:30:25;6.60;;;3.40;;
54368;SDS011;40266;52.434;17.056;2022-12-29T07:33:08;5.70;;;3.00;;
54368;SDS011;40266;52.434;17.056;2022-12-29T07:35:51;8.20;;;4.00;;
54368;SDS011;40266;52.434;17.056;2022-12-29T07:38:34;8.20;;;3.50;;
54368;SDS011;40266;52.434;17.056;2022-12-29T07:41:17;4.70;;;2.80;;
54368;SDS011;40266;52.434;17.056;2022-12-29T07:44:00;6.80;;;2.80;;
54368;SDS011;40266;52.434;17.056;2022-12-29T07:47:09;4.80;;;2.70;;
54368;SDS011;40266;52.434;17.056;2022-12-29T07:49:52;5.70;;;2.90;;
54368;SDS011;40266;52.434;17.056;2022-12-29T07:52:35;9.60;;;3.10;;
54368;SDS011;40266;52.434;17.056;2022-12-29T07:55:18;9.00;;;3.20;;
54368;SDS011;40266;52.434;17.056;2022-12-29T07:58:01;5.30;;;2.70;;
54368;SDS011;40266;52.434;17.056;2022-12-29T08:00:44;7.50;;;2.90;;
54368;SDS011;40266;52.434;17.056;2022-12-29T08:03:27;6.30;;;2.50;;
54368;SDS011;40266;52.434;17.056;2022-12-29T08:06:10;10.50;;;3.00;;
54368;SDS011;40266;52.434;17.056;2022-12-29T08:08:55;6.00;;;3.10;;
54368;SDS011;40266;52.434;17.056;2022-12-29T08:11:38;6.80;;;2.90;;
54368;SDS011;40266;52.434;17.056;2022-12-29T08:14:22;11.00;;;3.00;;
54368;SDS011;40266;52.434;17.056;2022-12-29T08:17:06;6.80;;;3.50;;
54368;SDS011;40266;52.434;17.056;2022-12-29T08:19:49;5.60;;;2.90;;
54368;SDS011;40266;52.434;17.056;2022-12-29T08:22:31;7.10;;;3.50;;
54368;SDS011;40266;52.434;17.056;2022-12-29T08:25:15;7.00;;;3.50;;
54368;SDS011;40266;52.434;17.056;2022-12-29T08:27:57;9.50;;;3.40;;
54368;SDS011;40266;52.434;17.056;2022-12-29T08:30:40;7.30;;;3.50;;
54368;SDS011;40266;52.434;17.056;2022-12-29T08:33:23;7.20;;;3.70;;
54368;SDS011;40266;52.434;17.056;2022-12-29T08:36:06;8.00;;;3.80;;
54368;SDS011;40266;52.434;17.056;2022-12-29T08:38:50;7.00;;;3.80;;
54368;SDS011;40266;52.434;17.056;2022-12-29T08:41:33;6.40;;;3.20;;
54368;SDS011;40266;52.434;17.056;2022-12-29T08:44:15;8.70;;;3.70;;
54368;SDS011;40266;52.434;17.056;2022-12-29T08:46:58;11.10;;;4.10;;
54368;SDS011;40266;52.434;17.056;2022-12-29T08:49:41;8.70;;;3.60;;
54368;SDS011;40266;52.434;17.056;2022-12-29T08:52:24;7.90;;;3.40;;
54368;SDS011;40266;52.434;17.056;2022-12-29T08:55:07;8.00;;;3.50;;
54368;SDS011;40266;52.434;17.056;2022-12-29T08:57:54;7.90;;;3.90;;
54368;SDS011;40266;52.434;17.056;2022-12-29T09:00:39;11.50;;;4.00;;
54368;SDS011;40266;52.434;17.056;2022-12-29T09:03:22;8.20;;;3.80;;
54368;SDS011;40266;52.434;17.056;2022-12-29T09:06:26;10.00;;;4.10;;
54368;SDS011;40266;52.434;17.056;2022-12-29T09:09:10;8.10;;;3.90;;
54368;SDS011;40266;52.434;17.056;2022-12-29T09:11:53;7.50;;;3.60;;
54368;SDS011;40266;52.434;17.056;2022-12-29T09:14:36;8.00;;;3.60;;
54368;SDS011;40266;52.434;17.056;2022-12-29T09:17:19;7.20;;;4.20;;
54368;SDS011;40266;52.434;17.056;2022-12-29T09:20:20;7.40;;;3.50;;
54368;SDS011;40266;52.434;17.056;2022-12-29T09:23:04;10.90;;;4.70;;
54368;SDS011;40266;52.434;17.056;2022-12-29T09:25:48;7.60;;;3.70;;
54368;SDS011;40266;52.434;17.056;2022-12-29T09:28:31;9.00;;;3.90;;
54368;SDS011;40266;52.434;17.056;2022-12-29T09:31:15;9.10;;;3.90;;
54368;SDS011;40266;52.434;17.056;2022-12-29T09:33:58;8.40;;;4.10;;
54368;SDS011;40266;52.434;17.056;2022-12-29T09:36:41;10.00;;;4.40;;
54368;SDS011;40266;52.434;17.056;2022-12-29T09:39:24;11.30;;;4.20;;
54368;SDS011;40266;52.434;17.056;2022-12-29T09:48:18;5.90;;;3.30;;
54368;SDS011;40266;52.434;17.056;2022-12-29T09:51:08;8.60;;;3.90;;
54368;SDS011;40266;52.434;17.056;2022-12-29T09:54:00;9.20;;;3.80;;
54368;SDS011;40266;52.434;17.056;2022-12-29T09:56:57;6.90;;;3.20;;
54368;SDS011;40266;52.434;17.056;2022-12-29T09:59:42;6.50;;;3.90;;
54368;SDS011;40266;52.434;17.056;2022-12-29T10:05:19;9.40;;;4.00;;
54368;SDS011;40266;52.434;17.056;2022-12-29T10:11:25;6.00;;;3.30;;
54368;SDS011;40266;52.434;17.056;2022-12-29T10:20:52;9.00;;;3.80;;
54368;SDS011;40266;52.434;17.056;2022-12-29T10:23:40;8.00;;;3.40;;
54368;SDS011;40266;52.434;17.056;2022-12-29T10:29:22;8.40;;;3.60;;
54368;SDS011;40266;52.434;17.056;2022-12-29T10:32:13;8.10;;;3.30;;
54368;SDS011;40266;52.434;17.056;2022-12-29T10:35:14;5.80;;;3.70;;
54368;SDS011;40266;52.434;17.056;2022-12-29T10:38:03;8.80;;;3.60;;
54368;SDS011;40266;52.434;17.056;2022-12-29T10:44:01;8.40;;;3.90;;
54368;SDS011;40266;52.434;17.056;2022-12-29T10:46:44;7.40;;;3.30;;
54368;SDS011;40266;52.434;17.056;2022-12-29T10:49:43;11.70;;;4.80;;
54368;SDS011;40266;52.434;17.056;2022-12-29T10:52:29;10.90;;;4.00;;
54368;SDS011;40266;52.434;17.056;2022-12-29T10:55:20;6.40;;;3.20;;
54368;SDS011;40266;52.434;17.056;2022-12-29T10:58:07;9.60;;;4.20;;
54368;SDS011;40266;52.434;17.056;2022-12-29T11:00:57;11.00;;;3.80;;
54368;SDS011;40266;52.434;17.056;2022-12-29T11:03:54;10.00;;;4.00;;
54368;SDS011;40266;52.434;17.056;2022-12-29T11:06:45;8.60;;;3.60;;
54368;SDS011;40266;52.434;17.056;2022-12-29T11:09:29;12.40;;;4.20;;
54368;SDS011;40266;52.434;17.056;2022-12-29T11:12:26;7.00;;;3.30;;
54368;SDS011;40266;52.434;17.056;2022-12-29T11:15:13;8.80;;;4.10;;
54368;SDS011;40266;52.434;17.056;2022-12-29T11:17:58;9.40;;;3.90;;
54368;SDS011;40266;52.434;17.056;2022-12-29T11:20:44;10.70;;;3.60;;
54368;SDS011;40266;52.434;17.056;2022-12-29T11:31:51;11.90;;;3.50;;
54368;SDS011;40266;52.434;17.056;2022-12-29T11:34:37;9.10;;;3.80;;
54368;SDS011;40266;52.434;17.056;2022-12-29T11:37:32;10.40;;;4.00;;
54368;SDS011;40266;52.434;17.056;2022-12-29T11:40:21;13.40;;;3.80;;
54368;SDS011;40266;52.434;17.056;2022-12-29T11:43:04;10.50;;;3.90;;
54368;SDS011;40266;52.434;17.056;2022-12-29T11:45:48;8.00;;;3.20;;
54368;SDS011;40266;52.434;17.056;2022-12-29T11:48:33;7.90;;;3.50;;
54368;SDS011;40266;52.434;17.056;2022-12-29T11:51:30;9.80;;;3.70;;
54368;SDS011;40266;52.434;17.056;2022-12-29T11:54:29;10.70;;;3.50;;
54368;SDS011;40266;52.434;17.056;2022-12-29T11:57:16;9.20;;;3.70;;
54368;SDS011;40266;52.434;17.056;2022-12-29T12:00:03;8.90;;;3.20;;
54368;SDS011;40266;52.434;17.056;2022-12-29T12:11:31;10.20;;;3.20;;
54368;SDS011;40266;52.434;17.056;2022-12-29T12:14:25;6.30;;;3.20;;
54368;SDS011;40266;52.434;17.056;2022-12-29T12:17:24;9.20;;;3.50;;
54368;SDS011;40266;52.434;17.056;2022-12-29T12:20:19;5.50;;;3.00;;
54368;SDS011;40266;52.434;17.056;2022-12-29T12:23:29;6.80;;;3.40;;
54368;SDS011;40266;52.434;17.056;2022-12-29T12:26:35;10.00;;;3.90;;
54368;SDS011;40266;52.434;17.056;2022-12-29T12:29:27;12.90;;;4.40;;
54368;SDS011;40266;52.434;17.056;2022-12-29T12:35:26;13.30;;;4.00;;
54368;SDS011;40266;52.434;17.056;2022-12-29T12:41:33;8.20;;;3.50;;
54368;SDS011;40266;52.434;17.056;2022-12-29T13:00:18;6.40;;;3.50;;
54368;SDS011;40266;52.434;17.056;2022-12-29T13:03:08;9.90;;;3.80;;
54368;SDS011;40266;52.434;17.056;2022-12-29T13:18:50;8.70;;;3.80;;
54368;SDS011;40266;52.434;17.056;2022-12-29T13:21:59;7.30;;;3.60;;
54368;SDS011;40266;52.434;17.056;2022-12-29T13:31:02;9.30;;;3.10;;
54368;SDS011;40266;52.434;17.056;2022-12-29T13:36:43;10.30;;;3.80;;
54368;SDS011;40266;52.434;17.056;2022-12-29T13:39:31;6.30;;;3.10;;
54368;SDS011;40266;52.434;17.056;2022-12-29T13:42:20;6.90;;;3.00;;
54368;SDS011;40266;52.434;17.056;2022-12-29T13:45:06;6.60;;;2.80;;
54368;SDS011;40266;52.434;17.056;2022-12-29T13:48:05;7.70;;;3.30;;
54368;SDS011;40266;52.434;17.056;2022-12-29T13:50:57;7.70;;;3.10;;
54368;SDS011;40266;52.434;17.056;2022-12-29T14:05:31;5.10;;;3.00;;
54368;SDS011;40266;52.434;17.056;2022-12-29T14:08:15;8.20;;;3.20;;
54368;SDS011;40266;52.434;17.056;2022-12-29T14:11:04;11.80;;;3.30;;
54368;SDS011;40266;52.434;17.056;2022-12-29T14:13:51;5.40;;;3.10;;
54368;SDS011;40266;52.434;17.056;2022-12-29T14:16:35;5.70;;;2.60;;
54368;SDS011;40266;52.434;17.056;2022-12-29T14:19:19;8.10;;;2.50;;
54368;SDS011;40266;52.434;17.056;2022-12-29T14:22:08;6.30;;;2.90;;
54368;SDS011;40266;52.434;17.056;2022-12-29T14:24:53;9.80;;;2.60;;
54368;SDS011;40266;52.434;17.056;2022-12-29T14:27:42;6.50;;;3.00;;
54368;SDS011;40266;52.434;17.056;2022-12-29T14:30:45;5.30;;;2.70;;
54368;SDS011;40266;52.434;17.056;2022-12-29T14:33:33;6.40;;;2.80;;
54368;SDS011;40266;52.434;17.056;2022-12-29T14:36:32;5.40;;;2.70;;
54368;SDS011;40266;52.434;17.056;2022-12-29T14:42:19;8.50;;;3.40;;
54368;SDS011;40266;52.434;17.056;2022-12-29T14:47:57;9.20;;;3.90;;
54368;SDS011;40266;52.434;17.056;2022-12-29T14:50:42;7.70;;;3.40;;
54368;SDS011;40266;52.434;17.056;2022-12-29T14:53:47;10.90;;;4.00;;
54368;SDS011;40266;52.434;17.056;2022-12-29T14:56:33;10.50;;;4.00;;
54368;SDS011;40266;52.434;17.056;2022-12-29T14:59:22;10.40;;;4.50;;
54368;SDS011;40266;52.434;17.056;2022-12-29T15:02:17;9.50;;;4.60;;
54368;SDS011;40266;52.434;17.056;2022-12-29T15:05:05;8.20;;;3.90;;
54368;SDS011;40266;52.434;17.056;2022-12-29T15:08:02;9.70;;;3.60;;
54368;SDS011;40266;52.434;17.056;2022-12-29T15:14:02;6.70;;;3.70;;
54368;SDS011;40266;52.434;17.056;2022-12-29T15:16:45;8.80;;;3.60;;
54368;SDS011;40266;52.434;17.056;2022-12-29T15:19:28;11.00;;;3.90;;
54368;SDS011;40266;52.434;17.056;2022-12-29T15:22:12;12.70;;;4.60;;
54368;SDS011;40266;52.434;17.056;2022-12-29T15:24:57;8.50;;;4.30;;
54368;SDS011;40266;52.434;17.056;2022-12-29T15:27:41;8.50;;;4.30;;
54368;SDS011;40266;52.434;17.056;2022-12-29T15:30:25;11.50;;;4.60;;
54368;SDS011;40266;52.434;17.056;2022-12-29T15:33:17;11.60;;;4.60;;
54368;SDS011;40266;52.434;17.056;2022-12-29T15:36:02;7.10;;;4.10;;
54368;SDS011;40266;52.434;17.056;2022-12-29T15:38:54;9.90;;;5.00;;
54368;SDS011;40266;52.434;17.056;2022-12-29T15:41:46;8.60;;;4.30;;
54368;SDS011;40266;52.434;17.056;2022-12-29T15:44:43;11.80;;;5.00;;
54368;SDS011;40266;52.434;17.056;2022-12-29T15:47:28;10.40;;;4.20;;
54368;SDS011;40266;52.434;17.056;2022-12-29T15:50:31;11.70;;;4.60;;
54368;SDS011;40266;52.434;17.056;2022-12-29T15:53:27;9.80;;;4.40;;
54368;SDS011;40266;52.434;17.056;2022-12-29T15:56:12;11.10;;;4.30;;
54368;SDS011;40266;52.434;17.056;2022-12-29T15:58:55;9.30;;;4.10;;
54368;SDS011;40266;52.434;17.056;2022-12-29T16:01:41;10.00;;;4.40;;
54368;SDS011;40266;52.434;17.056;2022-12-29T16:04:31;9.10;;;4.30;;
54368;SDS011;40266;52.434;17.056;2022-12-29T16:07:36;18.20;;;6.80;;
54368;SDS011;40266;52.434;17.056;2022-12-29T16:10:31;14.20;;;5.10;;
54368;SDS011;40266;52.434;17.056;2022-12-29T16:13:21;10.70;;;4.00;;
54368;SDS011;40266;52.434;17.056;2022-12-29T16:19:52;10.10;;;4.50;;
54368;SDS011;40266;52.434;17.056;2022-12-29T16:22:21;9.10;;;4.50;;
54368;SDS011;40266;52.434;17.056;2022-12-29T16:25:30;12.10;;;4.80;;
54368;SDS011;40266;52.434;17.056;2022-12-29T16:28:18;11.20;;;4.70;;
54368;SDS011;40266;52.434;17.056;2022-12-29T16:31:13;12.50;;;5.00;;
54368;SDS011;40266;52.434;17.056;2022-12-29T16:34:28;14.20;;;5.20;;
54368;SDS011;40266;52.434;17.056;2022-12-29T16:37:24;13.20;;;5.20;;
54368;SDS011;40266;52.434;17.056;2022-12-29T16:43:03;15.40;;;5.70;;
54368;SDS011;40266;52.434;17.056;2022-12-29T16:48:32;13.80;;;5.20;;
54368;SDS011;40266;52.434;17.056;2022-12-29T16:51:21;11.20;;;4.80;;
54368;SDS011;40266;52.434;17.056;2022-12-29T16:54:18;10.00;;;4.80;;
54368;SDS011;40266;52.434;17.056;2022-12-29T16:57:04;14.20;;;4.70;;
54368;SDS011;40266;52.434;17.056;2022-12-29T16:59:49;9.10;;;4.80;;
54368;SDS011;40266;52.434;17.056;2022-12-29T17:02:35;14.20;;;4.90;;
54368;SDS011;40266;52.434;17.056;2022-12-29T17:05:27;11.30;;;4.80;;
54368;SDS011;40266;52.434;17.056;2022-12-29T17:08:17;9.50;;;4.50;;
54368;SDS011;40266;52.434;17.056;2022-12-29T17:11:08;13.10;;;5.10;;
54368;SDS011;40266;52.434;17.056;2022-12-29T17:14:45;13.00;;;4.70;;
54368;SDS011;40266;52.434;17.056;2022-12-29T17:23:16;18.40;;;5.30;;
54368;SDS011;40266;52.434;17.056;2022-12-29T17:26:08;15.20;;;6.70;;
54368;SDS011;40266;52.434;17.056;2022-12-29T17:28:52;14.40;;;6.10;;
54368;SDS011;40266;52.434;17.056;2022-12-29T17:31:35;15.10;;;7.30;;
54368;SDS011;40266;52.434;17.056;2022-12-29T17:34:19;19.90;;;7.40;;
54368;SDS011;40266;52.434;17.056;2022-12-29T17:37:02;15.80;;;7.20;;
54368;SDS011;40266;52.434;17.056;2022-12-29T17:39:47;17.50;;;8.10;;
54368;SDS011;40266;52.434;17.056;2022-12-29T17:42:31;17.10;;;7.30;;
54368;SDS011;40266;52.434;17.056;2022-12-29T17:45:20;17.40;;;6.70;;
54368;SDS011;40266;52.434;17.056;2022-12-29T17:48:13;14.60;;;5.80;;
54368;SDS011;40266;52.434;17.056;2022-12-29T17:50:59;16.60;;;6.40;;
54368;SDS011;40266;52.434;17.056;2022-12-29T17:53:42;15.60;;;6.60;;
54368;SDS011;40266;52.434;17.056;2022-12-29T17:56:25;16.20;;;6.90;;
54368;SDS011;40266;52.434;17.056;2022-12-29T17:59:12;18.40;;;7.50;;
54368;SDS011;40266;52.434;17.056;2022-12-29T18:01:58;21.00;;;8.60;;
54368;SDS011;40266;52.434;17.056;2022-12-29T18:04:41;18.30;;;7.00;;
54368;SDS011;40266;52.434;17.056;2022-12-29T18:07:25;14.60;;;6.60;;
54368;SDS011;40266;52.434;17.056;2022-12-29T18:10:20;13.70;;;7.20;;
54368;SDS011;40266;52.434;17.056;2022-12-29T18:13:04;18.30;;;7.90;;
54368;SDS011;40266;52.434;17.056;2022-12-29T18:15:47;18.40;;;7.40;;
54368;SDS011;40266;52.434;17.056;2022-12-29T18:18:30;18.50;;;7.60;;
54368;SDS011;40266;52.434;17.056;2022-12-29T18:21:15;18.20;;;7.40;;
54368;SDS011;40266;52.434;17.056;2022-12-29T18:24:01;16.80;;;6.50;;
54368;SDS011;40266;52.434;17.056;2022-12-29T18:26:45;16.20;;;7.00;;
54368;SDS011;40266;52.434;17.056;2022-12-29T18:29:28;17.40;;;7.40;;
54368;SDS011;40266;52.434;17.056;2022-12-29T18:32:11;16.40;;;8.20;;
54368;SDS011;40266;52.434;17.056;2022-12-29T18:34:55;17.20;;;7.60;;
54368;SDS011;40266;52.434;17.056;2022-12-29T18:37:38;19.20;;;7.80;;
54368;SDS011;40266;52.434;17.056;2022-12-29T18:40:21;19.20;;;7.70;;
54368;SDS011;40266;52.434;17.056;2022-12-29T18:43:05;21.60;;;8.70;;
54368;SDS011;40266;52.434;17.056;2022-12-29T18:45:49;19.40;;;7.90;;
54368;SDS011;40266;52.434;17.056;2022-12-29T18:48:34;21.10;;;8.20;;
54368;SDS011;40266;52.434;17.056;2022-12-29T18:51:19;19.00;;;8.10;;
54368;SDS011;40266;52.434;17.056;2022-12-29T18:54:04;17.60;;;8.00;;
54368;SDS011;40266;52.434;17.056;2022-12-29T18:56:47;18.50;;;8.40;;
54368;SDS011;40266;52.434;17.056;2022-12-29T18:59:30;19.10;;;8.30;;
54368;SDS011;40266;52.434;17.056;2022-12-29T19:02:16;20.00;;;8.10;;
54368;SDS011;40266;52.434;17.056;2022-12-29T19:04:59;16.50;;;7.60;;
54368;SDS011;40266;52.434;17.056;2022-12-29T19:07:50;17.80;;;7.50;;